createdAt,value
2023-08-23T00:01:29.406Z,32.70
2023-08-23T00:03:56.547Z,32.70
2023-08-23T00:06:24.312Z,32.70
2023-08-23T00:08:51.352Z,32.60
2023-08-23T00:11:18.364Z,32.60
2023-08-23T00:13:45.426Z,32.60
2023-08-23T00:16:12.448Z,32.60
2023-08-23T00:18:39.461Z,32.50
2023-08-23T00:21:06.406Z,32.50
2023-08-23T00:23:33.432Z,32.50
2023-08-23T00:26:00.472Z,32.50
2023-08-23T00:28:27.430Z,32.50
2023-08-23T00:30:55.278Z,32.50
2023-08-23T00:33:22.610Z,32.40
2023-08-23T00:35:49.884Z,32.40
2023-08-23T00:38:17.502Z,32.40
2023-08-23T00:40:46.607Z,32.40
2023-08-23T00:43:14.260Z,32.30
2023-08-23T00:45:42.291Z,32.30
2023-08-23T00:48:10.423Z,32.30
2023-08-23T00:50:38.110Z,32.30
2023-08-23T00:53:06.329Z,32.20
2023-08-23T00:55:33.544Z,32.20
2023-08-23T00:58:00.547Z,32.20
2023-08-23T01:00:27.904Z,32.20
2023-08-23T01:02:55.161Z,32.20
2023-08-23T01:05:24.837Z,32.20
2023-08-23T01:08:03.662Z,32.20
2023-08-23T01:10:40.376Z,32.20
2023-08-23T01:13:11.100Z,32.20
2023-08-23T01:15:39.242Z,32.10
2023-08-23T01:18:06.441Z,32.10
2023-08-23T01:20:35.077Z,32.00
2023-08-23T01:23:14.981Z,32.00
2023-08-23T01:25:45.460Z,32.00
2023-08-23T01:28:12.462Z,32.00
2023-08-23T01:30:40.097Z,31.90
2023-08-23T01:33:25.712Z,31.90
2023-08-23T01:35:59.581Z,31.90
2023-08-23T01:38:27.371Z,31.80
2023-08-23T01:40:54.851Z,31.80
2023-08-23T01:43:22.172Z,31.80
2023-08-23T01:45:49.385Z,31.80
2023-08-23T01:48:16.314Z,31.80
2023-08-23T01:50:43.333Z,31.80
2023-08-23T01:53:10.371Z,31.80
2023-08-23T01:55:37.358Z,31.80
2023-08-23T01:58:04.419Z,31.80
2023-08-23T02:00:31.486Z,31.80
2023-08-23T02:02:58.645Z,31.70
2023-08-23T02:05:25.741Z,31.70
2023-08-23T02:07:52.787Z,31.80
2023-08-23T02:10:21.410Z,31.70
2023-08-23T02:12:48.745Z,31.70
2023-08-23T02:15:15.734Z,31.70
2023-08-23T02:17:42.825Z,31.70
2023-08-23T02:20:10.144Z,31.70
2023-08-23T02:22:37.163Z,31.70
2023-08-23T02:25:04.199Z,31.70
2023-08-23T02:27:31.129Z,31.70
2023-08-23T02:29:58.203Z,31.70
2023-08-23T02:32:26.402Z,31.60
2023-08-23T02:34:53.473Z,31.60
2023-08-23T02:37:20.430Z,31.70
2023-08-23T02:39:47.818Z,31.60
2023-08-23T02:42:14.819Z,31.70
2023-08-23T02:44:41.815Z,31.70
2023-08-23T02:47:08.776Z,31.70
2023-08-23T02:49:35.812Z,31.60
2023-08-23T02:52:03.629Z,31.60
2023-08-23T02:54:30.593Z,31.60
2023-08-23T02:56:57.582Z,31.60
2023-08-23T02:59:24.752Z,31.60
2023-08-23T03:01:52.176Z,31.60
2023-08-23T03:04:19.171Z,31.60
2023-08-23T03:06:46.141Z,31.60
2023-08-23T03:09:13.169Z,31.60
2023-08-23T03:11:40.128Z,31.60
2023-08-23T03:14:07.092Z,31.60
2023-08-23T03:16:34.336Z,31.50
2023-08-23T03:19:01.318Z,31.50
2023-08-23T03:21:30.415Z,31.50
2023-08-23T03:23:57.524Z,31.50
2023-08-23T03:26:24.552Z,31.50
2023-08-23T03:28:52.626Z,31.50
2023-08-23T03:31:19.682Z,31.40
2023-08-23T03:33:47.095Z,31.40
2023-08-23T03:36:14.114Z,31.40
2023-08-23T03:38:41.080Z,31.40
2023-08-23T03:41:14.364Z,31.40
2023-08-23T03:43:41.370Z,31.40
2023-08-23T03:46:08.480Z,31.40
2023-08-23T03:48:35.506Z,31.30
2023-08-23T03:51:02.595Z,31.30
2023-08-23T03:53:29.529Z,31.30
2023-08-23T03:55:56.634Z,31.20
2023-08-23T03:58:23.678Z,31.20
2023-08-23T04:00:52.632Z,31.20
2023-08-23T04:03:20.131Z,31.20
2023-08-23T04:05:47.876Z,31.10
2023-08-23T04:08:15.023Z,31.10
2023-08-23T04:10:46.564Z,31.00
2023-08-23T04:13:13.568Z,31.10
2023-08-23T04:15:45.213Z,31.00
2023-08-23T04:18:12.473Z,31.00
2023-08-23T04:20:39.587Z,31.00
2023-08-23T04:23:06.684Z,31.00
2023-08-23T04:25:33.955Z,31.00
2023-08-23T04:28:01.080Z,31.00
2023-08-23T04:30:28.152Z,30.90
2023-08-23T04:32:58.252Z,30.90
2023-08-23T04:35:26.511Z,30.80
2023-08-23T04:37:53.535Z,30.80
2023-08-23T04:40:21.355Z,30.80
2023-08-23T04:42:48.405Z,30.80
2023-08-23T04:45:15.395Z,30.80
2023-08-23T04:47:43.485Z,30.80
2023-08-23T04:50:10.636Z,30.80
2023-08-23T04:52:37.749Z,30.80
2023-08-23T04:55:05.608Z,30.70
2023-08-23T04:57:32.642Z,30.70
2023-08-23T04:59:59.721Z,30.70
2023-08-23T05:02:26.825Z,30.70
2023-08-23T05:04:56.618Z,30.70
2023-08-23T05:07:23.613Z,30.70
2023-08-23T05:09:50.799Z,30.70
2023-08-23T05:12:17.911Z,30.70
2023-08-23T05:14:45.929Z,30.70
2023-08-23T05:17:15.292Z,30.70
2023-08-23T05:19:43.396Z,30.80
2023-08-23T05:22:11.557Z,30.80
2023-08-23T05:24:38.516Z,30.70
2023-08-23T05:27:05.642Z,30.70
2023-08-23T05:29:33.036Z,30.70
2023-08-23T05:32:00.293Z,30.70
2023-08-23T05:34:27.661Z,30.70
2023-08-23T05:36:54.688Z,30.80
2023-08-23T05:39:21.707Z,30.80
2023-08-23T05:41:48.939Z,30.80
2023-08-23T05:44:15.958Z,30.80
2023-08-23T05:46:43.345Z,30.80
2023-08-23T05:49:11.402Z,30.80
2023-08-23T05:51:38.412Z,30.80
2023-08-23T05:54:05.401Z,30.80
2023-08-23T05:56:32.470Z,30.80
2023-08-23T05:58:59.444Z,30.80
2023-08-23T06:01:26.471Z,30.80
2023-08-23T06:03:53.585Z,30.70
2023-08-23T06:06:20.551Z,30.70
2023-08-23T06:08:47.532Z,30.70
2023-08-23T06:11:14.471Z,30.70
2023-08-23T06:13:44.033Z,30.70
2023-08-23T06:16:11.658Z,30.70
2023-08-23T06:18:38.655Z,30.70
2023-08-23T06:21:05.587Z,30.70
2023-08-23T06:23:32.505Z,30.70
2023-08-23T06:25:59.794Z,30.70
2023-08-23T06:28:26.824Z,30.70
2023-08-23T06:30:53.758Z,30.80
2023-08-23T06:33:20.852Z,30.80
2023-08-23T06:35:47.830Z,30.90
2023-08-23T06:38:17.039Z,30.90
2023-08-23T06:40:44.018Z,30.90
2023-08-23T06:43:20.670Z,30.90
2023-08-23T06:45:47.876Z,30.90
2023-08-23T06:48:17.117Z,31.00
2023-08-23T06:50:44.131Z,31.00
2023-08-23T06:53:11.097Z,31.00
2023-08-23T06:55:43.953Z,31.10
2023-08-23T06:58:11.016Z,31.10
2023-08-23T07:00:38.248Z,31.00
2023-08-23T07:03:05.663Z,31.10
2023-08-23T07:05:36.203Z,31.20
2023-08-23T07:08:03.748Z,31.20
2023-08-23T07:10:31.475Z,31.20
2023-08-23T07:12:58.591Z,31.30
2023-08-23T07:15:25.529Z,31.30
2023-08-23T07:17:52.577Z,31.20
2023-08-23T07:20:19.680Z,31.30
2023-08-23T07:22:46.685Z,31.30
2023-08-23T07:25:13.675Z,31.30
2023-08-23T07:27:40.730Z,31.40
2023-08-23T07:30:08.546Z,31.40
2023-08-23T07:32:35.553Z,31.40
2023-08-23T07:35:02.601Z,31.40
2023-08-23T07:37:29.590Z,31.50
2023-08-23T07:39:56.981Z,31.50
2023-08-23T07:42:25.419Z,31.60
2023-08-23T07:44:53.349Z,31.60
2023-08-23T07:47:20.402Z,31.60
2023-08-23T07:49:47.989Z,31.70
2023-08-23T07:52:14.911Z,31.70
2023-08-23T07:54:41.843Z,31.70
2023-08-23T07:57:08.758Z,31.70
2023-08-23T07:59:35.752Z,31.80
2023-08-23T08:02:02.890Z,31.90
2023-08-23T08:04:31.110Z,31.90
2023-08-23T08:06:58.071Z,31.90
2023-08-23T08:09:25.093Z,32.00
2023-08-23T08:11:52.064Z,32.00
2023-08-23T08:14:19.057Z,32.10
2023-08-23T08:16:46.073Z,32.10
2023-08-23T08:19:13.052Z,32.10
2023-08-23T08:21:41.005Z,32.10
2023-08-23T08:24:08.061Z,32.10
2023-08-23T08:26:35.054Z,32.20
2023-08-23T08:29:02.526Z,32.20
2023-08-23T08:31:31.247Z,32.20
2023-08-23T08:33:59.308Z,32.20
2023-08-23T08:36:26.338Z,32.20
2023-08-23T08:38:53.286Z,32.30
2023-08-23T08:41:20.314Z,32.30
2023-08-23T08:43:47.779Z,32.30
2023-08-23T08:46:15.912Z,32.30
2023-08-23T08:48:43.030Z,32.30
2023-08-23T08:51:11.567Z,32.40
2023-08-23T08:53:38.690Z,32.40
2023-08-23T08:56:05.861Z,32.40
2023-08-23T08:58:33.699Z,32.50
2023-08-23T09:01:02.182Z,32.50
2023-08-23T09:03:30.085Z,32.60
2023-08-23T09:05:57.200Z,32.60
2023-08-23T09:08:24.459Z,32.60
2023-08-23T09:10:51.716Z,32.60
2023-08-23T09:13:18.895Z,32.60
2023-08-23T09:15:47.401Z,32.70
2023-08-23T09:18:14.412Z,32.70
2023-08-23T09:20:43.081Z,32.80
2023-08-23T09:23:10.013Z,32.80
2023-08-23T09:25:37.002Z,32.80
2023-08-23T09:28:04.628Z,32.80
2023-08-23T09:30:33.616Z,32.70
2023-08-23T09:33:00.636Z,32.80
2023-08-23T09:35:28.546Z,32.80
2023-08-23T09:37:55.494Z,32.90
2023-08-23T09:40:27.696Z,32.90
2023-08-23T09:42:58.219Z,32.90
2023-08-23T09:45:27.434Z,33.00
2023-08-23T09:47:55.558Z,33.00
2023-08-23T09:50:23.897Z,33.00
2023-08-23T09:53:02.498Z,33.00
2023-08-23T09:55:30.150Z,33.10
2023-08-23T09:57:57.778Z,33.10
2023-08-23T10:00:24.814Z,33.10
2023-08-23T10:02:52.905Z,33.20
2023-08-23T10:05:20.388Z,33.10
2023-08-23T10:07:47.957Z,33.20
2023-08-23T10:10:15.346Z,33.30
2023-08-23T10:12:54.722Z,33.30
2023-08-23T10:15:31.035Z,33.30
2023-08-23T10:17:59.347Z,33.30
2023-08-23T10:20:26.529Z,33.40
2023-08-23T10:22:55.116Z,33.50
2023-08-23T10:25:23.148Z,33.50
2023-08-23T10:27:52.602Z,33.50
2023-08-23T10:30:25.910Z,33.50
2023-08-23T10:32:53.595Z,33.50
2023-08-23T10:35:39.083Z,33.50
2023-08-23T10:38:06.788Z,33.50
2023-08-23T10:40:34.223Z,33.60
2023-08-23T10:43:05.305Z,33.60
2023-08-23T10:45:48.872Z,33.60
2023-08-23T10:48:15.978Z,33.60
2023-08-23T10:50:43.130Z,33.70
2023-08-23T10:53:10.931Z,33.70
2023-08-23T10:55:38.439Z,33.70
2023-08-23T10:58:05.361Z,33.70
2023-08-23T11:00:32.467Z,33.80
2023-08-23T11:02:59.930Z,33.70
2023-08-23T11:05:27.240Z,33.80
2023-08-23T11:07:54.244Z,33.80
2023-08-23T11:10:22.185Z,33.80
2023-08-23T11:12:50.432Z,33.90
2023-08-23T11:15:17.501Z,33.90
2023-08-23T11:17:44.657Z,33.90
2023-08-23T11:20:11.916Z,34.00
2023-08-23T11:22:38.830Z,34.00
2023-08-23T11:25:06.037Z,34.00
2023-08-23T11:27:33.056Z,34.10
2023-08-23T11:30:00.357Z,34.10
2023-08-23T11:32:27.404Z,34.10
2023-08-23T11:34:58.409Z,34.10
2023-08-23T11:37:25.526Z,34.20
2023-08-23T11:40:13.634Z,34.20
2023-08-23T11:42:40.722Z,34.20
2023-08-23T11:45:08.220Z,34.20
2023-08-23T11:47:36.220Z,34.30
2023-08-23T11:50:06.195Z,34.40
2023-08-23T11:52:33.285Z,34.40
2023-08-23T11:55:02.841Z,34.50
2023-08-23T11:57:32.206Z,34.40
2023-08-23T11:59:59.107Z,34.40
2023-08-23T12:02:26.111Z,34.40
2023-08-23T12:04:53.276Z,34.40
2023-08-23T12:07:20.298Z,34.40
2023-08-23T12:09:48.614Z,34.50
2023-08-23T12:12:15.626Z,34.50
2023-08-23T12:14:42.674Z,34.50
2023-08-23T12:17:09.768Z,34.60
2023-08-23T12:19:39.435Z,34.60
2023-08-23T12:22:11.241Z,34.60
2023-08-23T12:24:38.306Z,34.60
2023-08-23T12:27:06.165Z,34.70
2023-08-23T12:29:33.154Z,34.80
2023-08-23T12:32:00.286Z,34.80
2023-08-23T12:34:27.434Z,34.90
2023-08-23T12:36:54.433Z,34.90
2023-08-23T12:39:21.463Z,34.90
2023-08-23T12:41:48.613Z,34.90
2023-08-23T12:44:15.876Z,34.90
2023-08-23T12:46:42.880Z,35.00
2023-08-23T12:49:13.848Z,35.00
2023-08-23T12:51:41.582Z,35.00
2023-08-23T12:54:08.990Z,35.00
2023-08-23T12:56:36.661Z,35.00
2023-08-23T12:59:03.792Z,35.00
2023-08-23T13:01:31.623Z,35.10
2023-08-23T13:03:58.797Z,35.10
2023-08-23T13:06:25.772Z,35.10
2023-08-23T13:08:52.766Z,35.20
2023-08-23T13:11:19.718Z,35.20
2023-08-23T13:13:50.172Z,35.20
2023-08-23T13:16:17.273Z,35.20
2023-08-23T13:18:44.393Z,35.30
2023-08-23T13:21:11.397Z,35.30
2023-08-23T13:23:38.520Z,35.40
2023-08-23T13:26:05.562Z,35.40
2023-08-23T13:28:32.632Z,35.50
2023-08-23T13:30:59.705Z,35.50
2023-08-23T13:33:27.118Z,35.50
2023-08-23T13:35:54.190Z,35.60
2023-08-23T13:38:22.517Z,35.70
2023-08-23T13:40:49.813Z,35.70
2023-08-23T13:43:17.535Z,35.70
2023-08-23T13:45:47.928Z,35.70
2023-08-23T13:48:14.946Z,35.70
2023-08-23T13:50:41.927Z,35.80
2023-08-23T13:53:08.929Z,35.90
2023-08-23T13:55:35.971Z,36.00
2023-08-23T13:58:02.975Z,36.00
2023-08-23T14:00:30.057Z,36.10
2023-08-23T14:02:57.125Z,36.20
2023-08-23T14:05:24.265Z,36.30
2023-08-23T14:07:51.611Z,36.30
2023-08-23T14:10:19.030Z,36.40
2023-08-23T14:20:11.478Z,36.50
2023-08-23T14:40:51.899Z,36.60
2023-08-23T14:55:30.765Z,37.00
2023-08-23T14:57:58.185Z,37.70
2023-08-23T15:00:26.939Z,37.80
2023-08-23T15:02:56.014Z,37.90
2023-08-23T15:05:23.209Z,38.10
2023-08-23T15:07:51.262Z,38.40
2023-08-23T15:10:18.450Z,38.50
2023-08-23T15:12:45.543Z,38.60
2023-08-23T15:15:13.931Z,38.70
2023-08-23T15:17:40.926Z,38.80
2023-08-23T15:20:08.410Z,38.80
2023-08-23T15:22:35.398Z,38.90
2023-08-23T15:25:02.734Z,39.10
2023-08-23T15:27:42.495Z,39.20
2023-08-23T15:30:13.046Z,39.30
2023-08-23T15:32:41.391Z,39.40
2023-08-23T15:35:08.642Z,39.50
2023-08-23T15:37:35.784Z,39.80
2023-08-23T15:40:03.932Z,40.00
2023-08-23T15:42:31.054Z,40.10
2023-08-23T15:44:58.339Z,40.20
2023-08-23T15:47:25.430Z,40.30
2023-08-23T15:49:52.396Z,40.40
2023-08-23T15:52:19.338Z,40.40
2023-08-23T15:54:46.354Z,40.50
2023-08-23T15:57:13.344Z,40.50
2023-08-23T15:59:40.312Z,40.50
2023-08-23T16:02:07.311Z,40.50
2023-08-23T16:04:34.474Z,40.40
2023-08-23T16:07:01.494Z,40.40
2023-08-23T16:09:28.544Z,40.40
2023-08-23T16:11:55.604Z,40.40
2023-08-23T16:14:22.737Z,40.50
2023-08-23T16:16:49.748Z,40.50
2023-08-23T16:19:16.767Z,40.50
2023-08-23T16:21:43.734Z,40.40
2023-08-23T16:24:10.757Z,40.40
2023-08-23T16:26:37.754Z,40.30
2023-08-23T16:29:05.115Z,40.30
2023-08-23T16:31:32.232Z,40.20
2023-08-23T16:33:59.307Z,40.10
2023-08-23T16:36:26.469Z,40.10
2023-08-23T16:38:53.441Z,40.10
2023-08-23T16:41:20.532Z,40.00
2023-08-23T16:43:47.551Z,40.00
2023-08-23T16:46:14.603Z,40.10
2023-08-23T16:48:41.540Z,40.20
2023-08-23T16:51:09.357Z,40.30
2023-08-23T16:53:36.360Z,40.20
2023-08-23T16:56:03.897Z,40.20
2023-08-23T16:58:31.860Z,40.10
2023-08-23T17:00:59.393Z,40.10
2023-08-23T17:03:26.490Z,40.20
2023-08-23T17:05:53.579Z,40.10
2023-08-23T17:08:20.551Z,40.20
2023-08-23T17:10:47.785Z,40.20
2023-08-23T17:13:14.779Z,40.10
2023-08-23T17:15:41.841Z,40.00
2023-08-23T17:18:08.909Z,39.90
2023-08-23T17:20:35.982Z,39.70
2023-08-23T17:23:04.217Z,39.60
2023-08-23T17:25:31.181Z,39.50
2023-08-23T17:27:59.889Z,39.30
2023-08-23T17:30:26.921Z,39.20
2023-08-23T17:32:54.048Z,39.10
2023-08-23T17:35:21.283Z,39.00
2023-08-23T17:37:48.663Z,38.90
2023-08-23T17:40:15.663Z,38.90
2023-08-23T17:42:42.760Z,38.70
2023-08-23T17:45:10.243Z,38.60
2023-08-23T17:47:37.327Z,38.50
2023-08-23T17:50:05.062Z,38.40
2023-08-23T17:52:32.050Z,38.30
2023-08-23T17:54:59.113Z,38.20
2023-08-23T17:57:26.093Z,38.00
2023-08-23T17:59:53.241Z,38.00
2023-08-23T18:02:20.402Z,37.80
2023-08-23T18:04:47.405Z,37.80
2023-08-23T18:07:14.689Z,37.70
2023-08-23T18:09:43.346Z,37.60
2023-08-23T18:12:10.391Z,37.60
2023-08-23T18:14:37.498Z,37.60
2023-08-23T18:17:04.574Z,37.40
2023-08-23T18:19:31.546Z,37.40
2023-08-23T18:21:58.527Z,37.40
2023-08-23T18:24:25.478Z,37.30
2023-08-23T18:26:52.678Z,37.30
2023-08-23T18:29:19.746Z,37.30
2023-08-23T18:31:46.751Z,37.20
2023-08-23T18:34:13.759Z,37.10
2023-08-23T18:36:40.819Z,37.10
2023-08-23T18:39:07.957Z,37.10
2023-08-23T18:41:34.968Z,37.00
2023-08-23T18:44:02.752Z,37.00
2023-08-23T18:46:29.736Z,36.90
2023-08-23T18:48:56.705Z,36.90
2023-08-23T18:51:23.696Z,36.80
2023-08-23T18:55:30.561Z,36.80
2023-08-23T18:57:58.076Z,36.70
2023-08-23T19:01:49.631Z,36.60
2023-08-23T19:04:16.656Z,36.50
2023-08-23T19:06:43.684Z,36.50
2023-08-23T19:09:11.000Z,36.50
2023-08-23T19:11:37.916Z,36.40
2023-08-23T19:14:04.884Z,36.40
2023-08-23T19:16:34.488Z,36.40
2023-08-23T19:19:01.506Z,36.30
2023-08-23T19:21:28.566Z,36.30
2023-08-23T19:23:55.595Z,36.30
2023-08-23T19:26:22.523Z,36.30
2023-08-23T19:28:49.454Z,36.20
2023-08-23T19:31:16.557Z,36.20
2023-08-23T19:33:43.666Z,36.10
2023-08-23T19:36:10.796Z,36.10
2023-08-23T19:38:37.881Z,36.10
2023-08-23T19:41:04.920Z,36.00
2023-08-23T19:43:31.927Z,36.00
2023-08-23T19:45:58.951Z,35.90
2023-08-23T19:48:32.754Z,35.90
2023-08-23T19:51:04.333Z,35.90
2023-08-23T19:53:31.688Z,35.90
2023-08-23T20:04:51.494Z,35.80
2023-08-23T20:28:49.693Z,35.40
2023-08-23T20:31:16.713Z,34.90
2023-08-23T20:33:44.451Z,34.80
2023-08-23T20:36:11.463Z,34.90
2023-08-23T20:38:38.519Z,34.90
2023-08-23T20:41:06.070Z,34.90
2023-08-23T20:43:33.512Z,34.90
2023-08-23T20:46:04.042Z,34.90
2023-08-23T20:48:31.342Z,34.90
2023-08-23T20:50:58.734Z,34.80
2023-08-23T20:53:26.252Z,34.90
2023-08-23T20:55:53.425Z,34.80
2023-08-23T20:58:20.501Z,34.90
2023-08-23T21:00:47.583Z,34.80
2023-08-23T21:03:14.644Z,34.80
2023-08-23T21:05:42.669Z,34.80
2023-08-23T21:08:09.668Z,34.80
2023-08-23T21:10:41.265Z,34.70
2023-08-23T21:13:09.031Z,34.70
2023-08-23T21:15:36.229Z,34.70
2023-08-23T21:18:03.413Z,34.70
2023-08-23T21:20:30.435Z,34.70
2023-08-23T21:22:57.457Z,34.60
2023-08-23T21:25:24.405Z,34.60
2023-08-23T21:27:51.811Z,34.60
2023-08-23T21:30:19.107Z,34.60
2023-08-23T21:32:46.618Z,34.50
2023-08-23T21:35:13.958Z,34.60
2023-08-23T21:37:40.919Z,34.50
2023-08-23T21:40:08.783Z,34.50
2023-08-23T21:42:35.764Z,34.40
2023-08-23T21:45:02.840Z,34.40
2023-08-23T21:47:29.834Z,34.50
2023-08-23T21:49:56.921Z,34.40
2023-08-23T21:52:23.987Z,34.40
2023-08-23T21:54:51.024Z,34.30
2023-08-23T21:57:18.057Z,34.30
2023-08-23T21:59:49.241Z,34.30
2023-08-23T22:02:16.200Z,34.30
2023-08-23T22:04:43.180Z,34.30
2023-08-23T22:07:10.393Z,34.30
2023-08-23T22:09:37.610Z,34.30
2023-08-23T22:12:04.778Z,34.20
2023-08-23T22:14:31.755Z,34.20
2023-08-23T22:16:58.808Z,34.20
2023-08-23T22:19:25.719Z,34.20
2023-08-23T22:21:52.874Z,34.10
2023-08-23T22:24:19.884Z,34.10
2023-08-23T22:26:46.882Z,34.00
2023-08-23T22:29:13.953Z,34.00
2023-08-23T22:31:41.011Z,34.00
2023-08-23T22:34:07.982Z,33.90
2023-08-23T22:36:34.986Z,33.90
2023-08-23T22:39:01.918Z,33.90
2023-08-23T22:41:28.950Z,33.90
2023-08-23T22:43:56.156Z,33.90
2023-08-23T22:46:31.501Z,33.90
2023-08-23T22:48:59.792Z,33.80
2023-08-23T22:51:26.890Z,33.80
2023-08-23T22:53:55.145Z,33.80
2023-08-23T22:56:22.283Z,33.70
2023-08-23T22:58:49.261Z,33.70
2023-08-23T23:01:16.225Z,33.70
2023-08-23T23:03:43.409Z,33.70
2023-08-23T23:06:10.575Z,33.70
2023-08-23T23:08:37.558Z,33.60
2023-08-23T23:11:08.134Z,33.60
2023-08-23T23:13:35.228Z,33.60
2023-08-23T23:16:03.196Z,33.60
2023-08-23T23:18:30.275Z,33.60
2023-08-23T23:21:00.209Z,33.60
2023-08-23T23:23:27.350Z,33.50
2023-08-23T23:25:54.962Z,33.60
2023-08-23T23:28:21.888Z,33.50
2023-08-23T23:30:48.840Z,33.50
2023-08-23T23:33:15.753Z,33.40
2023-08-23T23:35:42.729Z,33.40
2023-08-23T23:38:09.809Z,33.40
2023-08-23T23:40:40.642Z,33.40
2023-08-23T23:43:07.880Z,33.40
2023-08-23T23:45:37.741Z,33.40
2023-08-23T23:48:05.371Z,33.30
2023-08-23T23:50:32.898Z,33.30
2023-08-23T23:53:00.385Z,33.30
2023-08-23T23:55:29.256Z,33.30
2023-08-23T23:57:56.406Z,33.30
